sensor_id;sensor_type;location;lat;lon;timestamp;P1;durP1;ratioP1;P2;durP2;ratioP2
43676;SDS011;29275;48.800;18.102;2023-04-02T00:03:13;2.72;;;1.13;;
43676;SDS011;29275;48.800;18.102;2023-04-02T00:09:37;3.05;;;1.10;;
43676;SDS011;29275;48.800;18.102;2023-04-02T00:12:40;3.07;;;1.30;;
43676;SDS011;29275;48.800;18.102;2023-04-02T00:16:01;3.88;;;1.55;;
43676;SDS011;29275;48.800;18.102;2023-04-02T00:19:05;2.55;;;1.10;;
43676;SDS011;29275;48.800;18.102;2023-04-02T00:22:17;2.95;;;1.08;;
43676;SDS011;29275;48.800;18.102;2023-04-02T00:25:22;2.00;;;0.98;;
43676;SDS011;29275;48.800;18.102;2023-04-02T00:28:29;3.63;;;0.95;;
43676;SDS011;29275;48.800;18.102;2023-04-02T00:31:32;3.67;;;0.80;;
43676;SDS011;29275;48.800;18.102;2023-04-02T00:34:36;2.22;;;1.00;;
43676;SDS011;29275;48.800;18.102;2023-04-02T00:37:40;1.63;;;0.80;;
43676;SDS011;29275;48.800;18.102;2023-04-02T00:40:43;1.85;;;0.75;;
43676;SDS011;29275;48.800;18.102;2023-04-02T00:43:45;1.83;;;1.00;;
43676;SDS011;29275;48.800;18.102;2023-04-02T00:46:52;2.67;;;1.17;;
43676;SDS011;29275;48.800;18.102;2023-04-02T00:53:26;3.67;;;1.75;;
43676;SDS011;29275;48.800;18.102;2023-04-02T00:56:31;5.18;;;2.13;;
43676;SDS011;29275;48.800;18.102;2023-04-02T00:59:58;3.78;;;1.30;;
43676;SDS011;29275;48.800;18.102;2023-04-02T01:06:15;3.28;;;1.35;;
43676;SDS011;29275;48.800;18.102;2023-04-02T01:09:31;3.83;;;0.90;;
43676;SDS011;29275;48.800;18.102;2023-04-02T01:16:20;3.40;;;1.55;;
43676;SDS011;29275;48.800;18.102;2023-04-02T01:19:53;2.22;;;0.90;;
43676;SDS011;29275;48.800;18.102;2023-04-02T01:29:43;1.90;;;1.23;;
43676;SDS011;29275;48.800;18.102;2023-04-02T01:32:58;2.15;;;1.02;;
43676;SDS011;29275;48.800;18.102;2023-04-02T01:36:14;2.63;;;1.10;;
43676;SDS011;29275;48.800;18.102;2023-04-02T01:43:29;3.25;;;1.70;;
43676;SDS011;29275;48.800;18.102;2023-04-02T01:47:00;4.97;;;1.80;;
43676;SDS011;29275;48.800;18.102;2023-04-02T01:53:34;3.45;;;1.70;;
43676;SDS011;29275;48.800;18.102;2023-04-02T01:56:36;4.15;;;1.90;;
43676;SDS011;29275;48.800;18.102;2023-04-02T01:59:39;4.00;;;1.85;;
43676;SDS011;29275;48.800;18.102;2023-04-02T02:02:42;3.17;;;1.55;;
43676;SDS011;29275;48.800;18.102;2023-04-02T02:05:49;3.55;;;1.35;;
43676;SDS011;29275;48.800;18.102;2023-04-02T02:08:52;5.13;;;1.52;;
43676;SDS011;29275;48.800;18.102;2023-04-02T02:11:57;3.17;;;1.27;;
43676;SDS011;29275;48.800;18.102;2023-04-02T02:15:00;2.13;;;1.30;;
43676;SDS011;29275;48.800;18.102;2023-04-02T02:18:04;2.47;;;1.10;;
43676;SDS011;29275;48.800;18.102;2023-04-02T02:21:07;2.63;;;1.20;;
43676;SDS011;29275;48.800;18.102;2023-04-02T02:24:30;4.40;;;1.63;;
43676;SDS011;29275;48.800;18.102;2023-04-02T02:31:12;3.58;;;1.83;;
43676;SDS011;29275;48.800;18.102;2023-04-02T02:34:24;3.58;;;1.85;;
43676;SDS011;29275;48.800;18.102;2023-04-02T02:37:36;6.53;;;2.33;;
43676;SDS011;29275;48.800;18.102;2023-04-02T02:40:43;8.00;;;3.70;;
43676;SDS011;29275;48.800;18.102;2023-04-02T02:43:52;2.70;;;1.60;;
43676;SDS011;29275;48.800;18.102;2023-04-02T02:47:03;3.80;;;1.80;;
43676;SDS011;29275;48.800;18.102;2023-04-02T02:50:25;3.17;;;1.20;;
43676;SDS011;29275;48.800;18.102;2023-04-02T02:53:43;3.50;;;1.60;;
43676;SDS011;29275;48.800;18.102;2023-04-02T02:56:52;2.45;;;1.25;;
43676;SDS011;29275;48.800;18.102;2023-04-02T02:59:57;1.38;;;0.80;;
43676;SDS011;29275;48.800;18.102;2023-04-02T03:03:06;6.75;;;3.67;;
43676;SDS011;29275;48.800;18.102;2023-04-02T03:06:14;2.47;;;1.23;;
43676;SDS011;29275;48.800;18.102;2023-04-02T03:09:25;2.80;;;1.13;;
43676;SDS011;29275;48.800;18.102;2023-04-02T03:12:56;2.65;;;1.25;;
43676;SDS011;29275;48.800;18.102;2023-04-02T03:16:08;3.15;;;1.38;;
43676;SDS011;29275;48.800;18.102;2023-04-02T03:22:37;4.68;;;1.05;;
43676;SDS011;29275;48.800;18.102;2023-04-02T03:29:05;4.38;;;2.10;;
43676;SDS011;29275;48.800;18.102;2023-04-02T03:32:15;4.35;;;2.20;;
43676;SDS011;29275;48.800;18.102;2023-04-02T03:35:42;5.95;;;1.90;;
43676;SDS011;29275;48.800;18.102;2023-04-02T03:38:53;3.85;;;2.30;;
43676;SDS011;29275;48.800;18.102;2023-04-02T03:45:23;5.70;;;2.28;;
43676;SDS011;29275;48.800;18.102;2023-04-02T03:48:36;3.85;;;2.00;;
43676;SDS011;29275;48.800;18.102;2023-04-02T03:54:58;3.60;;;2.00;;
43676;SDS011;29275;48.800;18.102;2023-04-02T03:58:07;3.80;;;1.93;;
43676;SDS011;29275;48.800;18.102;2023-04-02T04:01:30;4.10;;;2.05;;
43676;SDS011;29275;48.800;18.102;2023-04-02T04:04:38;4.13;;;2.25;;
43676;SDS011;29275;48.800;18.102;2023-04-02T04:07:43;5.07;;;1.77;;
43676;SDS011;29275;48.800;18.102;2023-04-02T04:10:49;5.28;;;2.22;;
43676;SDS011;29275;48.800;18.102;2023-04-02T04:20:16;5.07;;;2.03;;
43676;SDS011;29275;48.800;18.102;2023-04-02T04:23:27;4.00;;;1.95;;
43676;SDS011;29275;48.800;18.102;2023-04-02T04:26:42;3.38;;;1.90;;
43676;SDS011;29275;48.800;18.102;2023-04-02T04:30:00;3.50;;;1.70;;
43676;SDS011;29275;48.800;18.102;2023-04-02T04:33:33;4.13;;;1.75;;
43676;SDS011;29275;48.800;18.102;2023-04-02T04:36:46;3.63;;;1.63;;
43676;SDS011;29275;48.800;18.102;2023-04-02T04:40:02;3.67;;;2.05;;
43676;SDS011;29275;48.800;18.102;2023-04-02T04:43:51;8.27;;;3.03;;
43676;SDS011;29275;48.800;18.102;2023-04-02T04:47:16;5.53;;;2.95;;
43676;SDS011;29275;48.800;18.102;2023-04-02T04:53:30;5.95;;;3.20;;
43676;SDS011;29275;48.800;18.102;2023-04-02T04:56:34;4.47;;;2.63;;
43676;SDS011;29275;48.800;18.102;2023-04-02T04:59:51;5.60;;;2.50;;
43676;SDS011;29275;48.800;18.102;2023-04-02T05:03:01;3.58;;;2.50;;
43676;SDS011;29275;48.800;18.102;2023-04-02T05:09:27;4.43;;;2.42;;
43676;SDS011;29275;48.800;18.102;2023-04-02T05:12:35;6.40;;;2.30;;
43676;SDS011;29275;48.800;18.102;2023-04-02T05:19:54;15.05;;;7.10;;
43676;SDS011;29275;48.800;18.102;2023-04-02T05:26:31;12.13;;;7.57;;
43676;SDS011;29275;48.800;18.102;2023-04-02T05:29:40;9.88;;;6.40;;
43676;SDS011;29275;48.800;18.102;2023-04-02T05:32:45;13.57;;;5.32;;
43676;SDS011;29275;48.800;18.102;2023-04-02T05:36:00;14.15;;;6.25;;
43676;SDS011;29275;48.800;18.102;2023-04-02T05:39:18;5.35;;;3.15;;
43676;SDS011;29275;48.800;18.102;2023-04-02T05:42:28;3.53;;;2.20;;
43676;SDS011;29275;48.800;18.102;2023-04-02T05:45:38;6.50;;;2.72;;
43676;SDS011;29275;48.800;18.102;2023-04-02T05:48:44;5.13;;;2.95;;
43676;SDS011;29275;48.800;18.102;2023-04-02T05:51:51;4.20;;;2.50;;
43676;SDS011;29275;48.800;18.102;2023-04-02T05:58:26;5.67;;;2.73;;
43676;SDS011;29275;48.800;18.102;2023-04-02T06:05:11;6.38;;;3.90;;
43676;SDS011;29275;48.800;18.102;2023-04-02T06:08:55;62.30;;;26.85;;
43676;SDS011;29275;48.800;18.102;2023-04-02T06:12:07;8.80;;;5.55;;
43676;SDS011;29275;48.800;18.102;2023-04-02T06:15:17;7.30;;;4.70;;
43676;SDS011;29275;48.800;18.102;2023-04-02T06:18:24;24.58;;;12.85;;
43676;SDS011;29275;48.800;18.102;2023-04-02T06:21:30;6.53;;;3.73;;
43676;SDS011;29275;48.800;18.102;2023-04-02T06:24:33;3.75;;;2.85;;
43676;SDS011;29275;48.800;18.102;2023-04-02T06:27:38;4.80;;;2.40;;
43676;SDS011;29275;48.800;18.102;2023-04-02T06:30:43;5.25;;;2.70;;
43676;SDS011;29275;48.800;18.102;2023-04-02T06:33:47;4.18;;;2.70;;
43676;SDS011;29275;48.800;18.102;2023-04-02T06:36:56;4.22;;;2.50;;
43676;SDS011;29275;48.800;18.102;2023-04-02T06:40:03;5.03;;;3.15;;
43676;SDS011;29275;48.800;18.102;2023-04-02T06:43:12;3.65;;;2.30;;
43676;SDS011;29275;48.800;18.102;2023-04-02T06:46:44;5.00;;;2.72;;
43676;SDS011;29275;48.800;18.102;2023-04-02T06:49:55;3.67;;;2.33;;
43676;SDS011;29275;48.800;18.102;2023-04-02T06:53:03;4.25;;;2.92;;
43676;SDS011;29275;48.800;18.102;2023-04-02T06:59:37;6.15;;;3.63;;
43676;SDS011;29275;48.800;18.102;2023-04-02T07:02:46;7.13;;;3.67;;
43676;SDS011;29275;48.800;18.102;2023-04-02T07:05:49;4.85;;;3.55;;
43676;SDS011;29275;48.800;18.102;2023-04-02T07:08:52;5.05;;;3.40;;
43676;SDS011;29275;48.800;18.102;2023-04-02T07:11:57;7.15;;;3.97;;
43676;SDS011;29275;48.800;18.102;2023-04-02T07:15:00;8.25;;;4.78;;
43676;SDS011;29275;48.800;18.102;2023-04-02T07:18:03;6.80;;;4.25;;
43676;SDS011;29275;48.800;18.102;2023-04-02T07:21:08;5.07;;;3.42;;
43676;SDS011;29275;48.800;18.102;2023-04-02T07:24:11;4.68;;;3.42;;
43676;SDS011;29275;48.800;18.102;2023-04-02T07:27:14;11.95;;;6.00;;
43676;SDS011;29275;48.800;18.102;2023-04-02T07:30:18;6.90;;;4.47;;
43676;SDS011;29275;48.800;18.102;2023-04-02T07:33:22;6.70;;;4.22;;
43676;SDS011;29275;48.800;18.102;2023-04-02T07:36:28;6.97;;;3.95;;
43676;SDS011;29275;48.800;18.102;2023-04-02T07:39:32;5.95;;;3.95;;
43676;SDS011;29275;48.800;18.102;2023-04-02T07:42:38;5.55;;;4.10;;
43676;SDS011;29275;48.800;18.102;2023-04-02T07:45:41;6.65;;;4.22;;
43676;SDS011;29275;48.800;18.102;2023-04-02T07:48:44;6.43;;;4.30;;
43676;SDS011;29275;48.800;18.102;2023-04-02T07:51:48;7.03;;;4.40;;
43676;SDS011;29275;48.800;18.102;2023-04-02T07:54:53;5.88;;;4.03;;
43676;SDS011;29275;48.800;18.102;2023-04-02T07:57:57;6.60;;;3.95;;
43676;SDS011;29275;48.800;18.102;2023-04-02T08:01:01;5.75;;;3.92;;
43676;SDS011;29275;48.800;18.102;2023-04-02T08:04:05;4.93;;;3.72;;
43676;SDS011;29275;48.800;18.102;2023-04-02T08:07:09;4.57;;;3.83;;
43676;SDS011;29275;48.800;18.102;2023-04-02T08:10:12;4.43;;;2.92;;
43676;SDS011;29275;48.800;18.102;2023-04-02T08:13:16;12.63;;;4.60;;
43676;SDS011;29275;48.800;18.102;2023-04-02T08:16:20;6.15;;;3.50;;
43676;SDS011;29275;48.800;18.102;2023-04-02T08:19:24;6.18;;;4.07;;
43676;SDS011;29275;48.800;18.102;2023-04-02T08:22:29;8.98;;;5.10;;
43676;SDS011;29275;48.800;18.102;2023-04-02T08:25:33;11.70;;;5.28;;
43676;SDS011;29275;48.800;18.102;2023-04-02T08:28:36;8.23;;;4.95;;
43676;SDS011;29275;48.800;18.102;2023-04-02T08:31:39;8.57;;;4.60;;
43676;SDS011;29275;48.800;18.102;2023-04-02T08:34:42;5.00;;;3.35;;
43676;SDS011;29275;48.800;18.102;2023-04-02T08:37:46;5.03;;;3.28;;
43676;SDS011;29275;48.800;18.102;2023-04-02T08:40:53;3.75;;;2.88;;
43676;SDS011;29275;48.800;18.102;2023-04-02T08:44:09;4.25;;;3.17;;
43676;SDS011;29275;48.800;18.102;2023-04-02T08:47:16;4.63;;;3.28;;
43676;SDS011;29275;48.800;18.102;2023-04-02T08:53:30;8.23;;;3.30;;
43676;SDS011;29275;48.800;18.102;2023-04-02T08:56:38;11.30;;;5.88;;
43676;SDS011;29275;48.800;18.102;2023-04-02T09:00:19;5.95;;;3.67;;
43676;SDS011;29275;48.800;18.102;2023-04-02T09:03:46;5.18;;;4.00;;
43676;SDS011;29275;48.800;18.102;2023-04-02T09:06:52;6.47;;;4.63;;
43676;SDS011;29275;48.800;18.102;2023-04-02T09:09:57;5.53;;;3.58;;
43676;SDS011;29275;48.800;18.102;2023-04-02T09:13:00;10.20;;;5.05;;
43676;SDS011;29275;48.800;18.102;2023-04-02T09:19:16;5.03;;;3.47;;
43676;SDS011;29275;48.800;18.102;2023-04-02T09:22:25;7.38;;;3.33;;
43676;SDS011;29275;48.800;18.102;2023-04-02T09:25:29;6.28;;;3.88;;
43676;SDS011;29275;48.800;18.102;2023-04-02T09:28:33;7.85;;;4.47;;
43676;SDS011;29275;48.800;18.102;2023-04-02T09:31:37;5.53;;;2.70;;
43676;SDS011;29275;48.800;18.102;2023-04-02T09:34:43;6.03;;;3.72;;
43676;SDS011;29275;48.800;18.102;2023-04-02T09:37:46;3.75;;;1.75;;
43676;SDS011;29275;48.800;18.102;2023-04-02T09:40:50;3.90;;;2.13;;
43676;SDS011;29275;48.800;18.102;2023-04-02T09:47:24;3.15;;;1.80;;
43676;SDS011;29275;48.800;18.102;2023-04-02T09:50:32;2.45;;;1.17;;
43676;SDS011;29275;48.800;18.102;2023-04-02T09:53:37;3.65;;;2.22;;
43676;SDS011;29275;48.800;18.102;2023-04-02T09:56:58;4.22;;;1.15;;
43676;SDS011;29275;48.800;18.102;2023-04-02T10:00:19;3.00;;;0.70;;
43676;SDS011;29275;48.800;18.102;2023-04-02T10:03:28;1.52;;;0.60;;
43676;SDS011;29275;48.800;18.102;2023-04-02T10:09:37;1.27;;;0.50;;
43676;SDS011;29275;48.800;18.102;2023-04-02T10:12:40;1.10;;;0.60;;
43676;SDS011;29275;48.800;18.102;2023-04-02T10:22:17;0.82;;;0.20;;
43676;SDS011;29275;48.800;18.102;2023-04-02T10:25:22;0.40;;;0.30;;
43676;SDS011;29275;48.800;18.102;2023-04-02T10:32:05;3.00;;;0.98;;
43676;SDS011;29275;48.800;18.102;2023-04-02T10:42:02;2.22;;;0.98;;
43676;SDS011;29275;48.800;18.102;2023-04-02T10:49:03;0.32;;;0.20;;
43676;SDS011;29275;48.800;18.102;2023-04-02T10:52:20;1.95;;;0.80;;
43676;SDS011;29275;48.800;18.102;2023-04-02T10:55:29;0.88;;;0.30;;
43676;SDS011;29275;48.800;18.102;2023-04-02T10:58:36;3.10;;;0.40;;
43676;SDS011;29275;48.800;18.102;2023-04-02T11:01:45;2.17;;;0.98;;
43676;SDS011;29275;48.800;18.102;2023-04-02T11:04:48;3.60;;;0.40;;
43676;SDS011;29275;48.800;18.102;2023-04-02T11:07:54;2.88;;;0.90;;
43676;SDS011;29275;48.800;18.102;2023-04-02T11:11:02;2.45;;;1.00;;
43676;SDS011;29275;48.800;18.102;2023-04-02T11:14:23;3.45;;;1.20;;
43676;SDS011;29275;48.800;18.102;2023-04-02T11:17:28;3.25;;;1.30;;
43676;SDS011;29275;48.800;18.102;2023-04-02T11:24:01;2.75;;;0.88;;
43676;SDS011;29275;48.800;18.102;2023-04-02T11:30:24;0.77;;;0.40;;
43676;SDS011;29275;48.800;18.102;2023-04-02T11:39:55;1.15;;;0.55;;
43676;SDS011;29275;48.800;18.102;2023-04-02T11:46:37;1.90;;;0.57;;
43676;SDS011;29275;48.800;18.102;2023-04-02T11:50:04;2.58;;;0.70;;
43676;SDS011;29275;48.800;18.102;2023-04-02T11:59:23;1.02;;;0.40;;
43676;SDS011;29275;48.800;18.102;2023-04-02T12:02:59;1.02;;;0.30;;
43676;SDS011;29275;48.800;18.102;2023-04-02T12:06:22;1.42;;;0.50;;
43676;SDS011;29275;48.800;18.102;2023-04-02T12:09:46;0.95;;;0.30;;
43676;SDS011;29275;48.800;18.102;2023-04-02T12:12:52;0.60;;;0.30;;
43676;SDS011;29275;48.800;18.102;2023-04-02T12:15:55;2.70;;;0.40;;
43676;SDS011;29275;48.800;18.102;2023-04-02T12:18:59;0.65;;;0.40;;
43676;SDS011;29275;48.800;18.102;2023-04-02T12:22:02;1.05;;;0.50;;
43676;SDS011;29275;48.800;18.102;2023-04-02T12:28:26;0.50;;;0.25;;
43676;SDS011;29275;48.800;18.102;2023-04-02T12:31:30;1.25;;;0.40;;
43676;SDS011;29275;48.800;18.102;2023-04-02T12:34:34;0.80;;;0.40;;
43676;SDS011;29275;48.800;18.102;2023-04-02T12:37:37;1.33;;;0.50;;
43676;SDS011;29275;48.800;18.102;2023-04-02T12:40:40;1.40;;;0.52;;
43676;SDS011;29275;48.800;18.102;2023-04-02T12:44:15;1.50;;;0.52;;
43676;SDS011;29275;48.800;18.102;2023-04-02T12:47:19;1.55;;;0.60;;
43676;SDS011;29275;48.800;18.102;2023-04-02T12:50:22;1.25;;;0.50;;
43676;SDS011;29275;48.800;18.102;2023-04-02T12:56:41;1.15;;;0.43;;
43676;SDS011;29275;48.800;18.102;2023-04-02T12:59:44;1.80;;;0.45;;
43676;SDS011;29275;48.800;18.102;2023-04-02T13:02:48;1.08;;;0.40;;
43676;SDS011;29275;48.800;18.102;2023-04-02T13:06:02;1.15;;;0.40;;
43676;SDS011;29275;48.800;18.102;2023-04-02T13:09:23;1.10;;;0.50;;
43676;SDS011;29275;48.800;18.102;2023-04-02T13:12:38;0.98;;;0.57;;
43676;SDS011;29275;48.800;18.102;2023-04-02T13:15:42;1.70;;;0.70;;
43676;SDS011;29275;48.800;18.102;2023-04-02T13:18:46;5.88;;;2.53;;
43676;SDS011;29275;48.800;18.102;2023-04-02T13:21:50;5.55;;;1.70;;
43676;SDS011;29275;48.800;18.102;2023-04-02T13:24:54;17.73;;;7.00;;
43676;SDS011;29275;48.800;18.102;2023-04-02T13:27:57;4.68;;;2.42;;
43676;SDS011;29275;48.800;18.102;2023-04-02T13:31:00;2.13;;;0.93;;
43676;SDS011;29275;48.800;18.102;2023-04-02T13:34:03;3.33;;;1.25;;
43676;SDS011;29275;48.800;18.102;2023-04-02T13:37:07;2.40;;;1.20;;
43676;SDS011;29275;48.800;18.102;2023-04-02T13:40:15;2.17;;;1.00;;
43676;SDS011;29275;48.800;18.102;2023-04-02T13:43:19;2.55;;;1.25;;
43676;SDS011;29275;48.800;18.102;2023-04-02T13:46:23;2.45;;;1.10;;
43676;SDS011;29275;48.800;18.102;2023-04-02T13:49:30;5.15;;;1.60;;
43676;SDS011;29275;48.800;18.102;2023-04-02T13:52:34;3.70;;;1.45;;
43676;SDS011;29275;48.800;18.102;2023-04-02T13:55:39;3.38;;;1.63;;
43676;SDS011;29275;48.800;18.102;2023-04-02T13:58:44;3.47;;;1.88;;
43676;SDS011;29275;48.800;18.102;2023-04-02T14:01:47;3.25;;;2.08;;
43676;SDS011;29275;48.800;18.102;2023-04-02T14:04:55;4.00;;;2.10;;
43676;SDS011;29275;48.800;18.102;2023-04-02T14:28:07;6.82;;;3.60;;
43676;SDS011;29275;48.800;18.102;2023-04-02T14:37:49;10.35;;;4.88;;
43676;SDS011;29275;48.800;18.102;2023-04-02T14:40:58;5.15;;;2.83;;
43676;SDS011;29275;48.800;18.102;2023-04-02T14:44:06;5.07;;;2.75;;
43676;SDS011;29275;48.800;18.102;2023-04-02T14:50:37;4.50;;;2.97;;
43676;SDS011;29275;48.800;18.102;2023-04-02T14:57:14;7.20;;;3.55;;
43676;SDS011;29275;48.800;18.102;2023-04-02T15:00:25;7.35;;;3.45;;
43676;SDS011;29275;48.800;18.102;2023-04-02T15:03:34;5.30;;;3.10;;
43676;SDS011;29275;48.800;18.102;2023-04-02T15:06:40;5.80;;;3.42;;
43676;SDS011;29275;48.800;18.102;2023-04-02T15:10:16;5.55;;;3.10;;
43676;SDS011;29275;48.800;18.102;2023-04-02T15:16:49;5.03;;;3.30;;
43676;SDS011;29275;48.800;18.102;2023-04-02T15:19:56;4.80;;;3.03;;
43676;SDS011;29275;48.800;18.102;2023-04-02T15:32:41;6.97;;;2.97;;
43676;SDS011;29275;48.800;18.102;2023-04-02T15:35:50;7.35;;;3.42;;
43676;SDS011;29275;48.800;18.102;2023-04-02T15:42:27;6.07;;;4.43;;
43676;SDS011;29275;48.800;18.102;2023-04-02T15:45:32;6.72;;;4.75;;
43676;SDS011;29275;48.800;18.102;2023-04-02T15:52:26;8.95;;;4.75;;
43676;SDS011;29275;48.800;18.102;2023-04-02T15:55:44;6.43;;;4.70;;
43676;SDS011;29275;48.800;18.102;2023-04-02T16:08:53;7.50;;;5.20;;
43676;SDS011;29275;48.800;18.102;2023-04-02T16:12:08;9.82;;;5.53;;
43676;SDS011;29275;48.800;18.102;2023-04-02T16:15:23;10.00;;;5.82;;
43676;SDS011;29275;48.800;18.102;2023-04-02T16:18:35;9.25;;;6.47;;
43676;SDS011;29275;48.800;18.102;2023-04-02T16:25:17;11.60;;;6.90;;
43676;SDS011;29275;48.800;18.102;2023-04-02T16:28:32;18.60;;;8.63;;
43676;SDS011;29275;48.800;18.102;2023-04-02T16:31:45;9.30;;;5.72;;
43676;SDS011;29275;48.800;18.102;2023-04-02T16:35:02;9.00;;;5.78;;
43676;SDS011;29275;48.800;18.102;2023-04-02T16:45:28;8.55;;;5.25;;
43676;SDS011;29275;48.800;18.102;2023-04-02T17:11:24;10.13;;;5.53;;
43676;SDS011;29275;48.800;18.102;2023-04-02T17:15:07;7.70;;;4.55;;
43676;SDS011;29275;48.800;18.102;2023-04-02T17:18:28;7.97;;;5.10;;
43676;SDS011;29275;48.800;18.102;2023-04-02T17:21:32;8.98;;;5.28;;
43676;SDS011;29275;48.800;18.102;2023-04-02T17:28:01;9.02;;;5.57;;
43676;SDS011;29275;48.800;18.102;2023-04-02T17:31:24;8.20;;;5.30;;
43676;SDS011;29275;48.800;18.102;2023-04-02T17:34:29;13.52;;;7.80;;
43676;SDS011;29275;48.800;18.102;2023-04-02T17:37:33;9.27;;;6.28;;
43676;SDS011;29275;48.800;18.102;2023-04-02T17:40:47;9.43;;;6.25;;
43676;SDS011;29275;48.800;18.102;2023-04-02T17:47:39;9.20;;;5.60;;
43676;SDS011;29275;48.800;18.102;2023-04-02T17:50:52;17.63;;;7.07;;
43676;SDS011;29275;48.800;18.102;2023-04-02T17:57:36;10.32;;;5.15;;
43676;SDS011;29275;48.800;18.102;2023-04-02T18:01:09;8.57;;;5.00;;
43676;SDS011;29275;48.800;18.102;2023-04-02T18:17:37;10.35;;;5.95;;
43676;SDS011;29275;48.800;18.102;2023-04-02T18:30:57;9.88;;;5.28;;
43676;SDS011;29275;48.800;18.102;2023-04-02T18:51:23;10.18;;;6.55;;
43676;SDS011;29275;48.800;18.102;2023-04-02T18:54:31;7.88;;;5.10;;
43676;SDS011;29275;48.800;18.102;2023-04-02T18:57:37;10.07;;;6.22;;
43676;SDS011;29275;48.800;18.102;2023-04-02T19:00:42;13.18;;;7.07;;
43676;SDS011;29275;48.800;18.102;2023-04-02T19:03:48;10.57;;;6.38;;
43676;SDS011;29275;48.800;18.102;2023-04-02T19:06:53;9.70;;;6.15;;
43676;SDS011;29275;48.800;18.102;2023-04-02T19:10:05;26.70;;;12.45;;
43676;SDS011;29275;48.800;18.102;2023-04-02T19:13:14;18.35;;;9.18;;
43676;SDS011;29275;48.800;18.102;2023-04-02T19:19:46;11.52;;;6.45;;
43676;SDS011;29275;48.800;18.102;2023-04-02T19:43:30;8.98;;;5.55;;
43676;SDS011;29275;48.800;18.102;2023-04-02T19:46:33;8.07;;;5.00;;
43676;SDS011;29275;48.800;18.102;2023-04-02T19:49:36;9.02;;;4.53;;
43676;SDS011;29275;48.800;18.102;2023-04-02T19:52:39;10.32;;;5.38;;
43676;SDS011;29275;48.800;18.102;2023-04-02T19:55:42;10.27;;;5.78;;
43676;SDS011;29275;48.800;18.102;2023-04-02T19:58:45;7.35;;;4.25;;
43676;SDS011;29275;48.800;18.102;2023-04-02T20:01:48;7.47;;;4.00;;
43676;SDS011;29275;48.800;18.102;2023-04-02T20:04:50;10.93;;;5.85;;
43676;SDS011;29275;48.800;18.102;2023-04-02T20:07:54;6.15;;;3.90;;
43676;SDS011;29275;48.800;18.102;2023-04-02T20:10:56;6.90;;;4.25;;
43676;SDS011;29275;48.800;18.102;2023-04-02T20:14:00;8.27;;;5.45;;
43676;SDS011;29275;48.800;18.102;2023-04-02T20:17:03;7.28;;;3.60;;
43676;SDS011;29275;48.800;18.102;2023-04-02T20:20:06;9.15;;;4.28;;
43676;SDS011;29275;48.800;18.102;2023-04-02T20:23:09;14.27;;;5.82;;
43676;SDS011;29275;48.800;18.102;2023-04-02T20:26:12;9.57;;;4.72;;
43676;SDS011;29275;48.800;18.102;2023-04-02T20:29:15;12.57;;;5.35;;
43676;SDS011;29275;48.800;18.102;2023-04-02T20:32:18;8.27;;;4.43;;
43676;SDS011;29275;48.800;18.102;2023-04-02T20:35:21;7.35;;;4.03;;
43676;SDS011;29275;48.800;18.102;2023-04-02T20:38:24;8.70;;;4.85;;
43676;SDS011;29275;48.800;18.102;2023-04-02T20:41:27;20.98;;;9.65;;
43676;SDS011;29275;48.800;18.102;2023-04-02T20:44:30;8.93;;;4.65;;
43676;SDS011;29275;48.800;18.102;2023-04-02T20:47:35;7.13;;;4.00;;
43676;SDS011;29275;48.800;18.102;2023-04-02T20:50:38;7.25;;;4.20;;
43676;SDS011;29275;48.800;18.102;2023-04-02T20:53:41;9.75;;;5.80;;
43676;SDS011;29275;48.800;18.102;2023-04-02T20:56:44;6.72;;;3.70;;
43676;SDS011;29275;48.800;18.102;2023-04-02T20:59:46;7.90;;;4.72;;
43676;SDS011;29275;48.800;18.102;2023-04-02T21:02:49;6.78;;;3.60;;
43676;SDS011;29275;48.800;18.102;2023-04-02T21:05:52;7.15;;;4.22;;
43676;SDS011;29275;48.800;18.102;2023-04-02T21:08:55;8.25;;;4.57;;
43676;SDS011;29275;48.800;18.102;2023-04-02T21:11:58;6.30;;;3.70;;
43676;SDS011;29275;48.800;18.102;2023-04-02T21:15:01;8.60;;;4.93;;
43676;SDS011;29275;48.800;18.102;2023-04-02T21:18:04;5.43;;;3.10;;
43676;SDS011;29275;48.800;18.102;2023-04-02T21:21:07;6.35;;;3.67;;
43676;SDS011;29275;48.800;18.102;2023-04-02T21:24:11;7.10;;;3.65;;
43676;SDS011;29275;48.800;18.102;2023-04-02T21:27:14;7.70;;;3.15;;
43676;SDS011;29275;48.800;18.102;2023-04-02T21:30:17;4.88;;;2.83;;
43676;SDS011;29275;48.800;18.102;2023-04-02T21:33:20;6.30;;;3.53;;
43676;SDS011;29275;48.800;18.102;2023-04-02T21:36:27;6.32;;;3.38;;
43676;SDS011;29275;48.800;18.102;2023-04-02T21:39:34;6.95;;;3.50;;
43676;SDS011;29275;48.800;18.102;2023-04-02T21:42:37;5.10;;;2.75;;
43676;SDS011;29275;48.800;18.102;2023-04-02T21:45:40;6.07;;;2.90;;
43676;SDS011;29275;48.800;18.102;2023-04-02T21:48:42;7.05;;;3.40;;
43676;SDS011;29275;48.800;18.102;2023-04-02T21:51:46;9.45;;;4.53;;
43676;SDS011;29275;48.800;18.102;2023-04-02T21:54:49;5.60;;;3.28;;
43676;SDS011;29275;48.800;18.102;2023-04-02T21:57:52;8.75;;;3.65;;
43676;SDS011;29275;48.800;18.102;2023-04-02T22:00:55;6.05;;;3.53;;
43676;SDS011;29275;48.800;18.102;2023-04-02T22:03:59;6.28;;;3.65;;
43676;SDS011;29275;48.800;18.102;2023-04-02T22:07:03;5.95;;;3.90;;
43676;SDS011;29275;48.800;18.102;2023-04-02T22:10:07;8.50;;;4.25;;
43676;SDS011;29275;48.800;18.102;2023-04-02T22:13:10;7.65;;;4.65;;
43676;SDS011;29275;48.800;18.102;2023-04-02T22:16:14;5.85;;;3.58;;
43676;SDS011;29275;48.800;18.102;2023-04-02T22:19:22;6.45;;;3.70;;
43676;SDS011;29275;48.800;18.102;2023-04-02T22:22:24;5.20;;;3.58;;
43676;SDS011;29275;48.800;18.102;2023-04-02T22:25:27;6.28;;;3.92;;
43676;SDS011;29275;48.800;18.102;2023-04-02T22:28:30;5.40;;;3.40;;
43676;SDS011;29275;48.800;18.102;2023-04-02T22:31:33;5.75;;;3.63;;
43676;SDS011;29275;48.800;18.102;2023-04-02T22:34:36;5.70;;;3.53;;
43676;SDS011;29275;48.800;18.102;2023-04-02T22:37:46;7.65;;;3.50;;
43676;SDS011;29275;48.800;18.102;2023-04-02T22:40:49;5.32;;;3.17;;
43676;SDS011;29275;48.800;18.102;2023-04-02T22:43:52;6.57;;;3.33;;
43676;SDS011;29275;48.800;18.102;2023-04-02T22:46:58;4.82;;;3.22;;
43676;SDS011;29275;48.800;18.102;2023-04-02T22:50:01;4.43;;;2.72;;
43676;SDS011;29275;48.800;18.102;2023-04-02T22:53:03;4.20;;;2.85;;
43676;SDS011;29275;48.800;18.102;2023-04-02T22:56:07;5.40;;;2.67;;
43676;SDS011;29275;48.800;18.102;2023-04-02T22:59:14;3.72;;;2.50;;
43676;SDS011;29275;48.800;18.102;2023-04-02T23:02:17;5.05;;;2.92;;
43676;SDS011;29275;48.800;18.102;2023-04-02T23:05:20;5.32;;;2.60;;
43676;SDS011;29275;48.800;18.102;2023-04-02T23:08:23;4.85;;;2.90;;
43676;SDS011;29275;48.800;18.102;2023-04-02T23:11:26;4.70;;;2.28;;
43676;SDS011;29275;48.800;18.102;2023-04-02T23:14:31;3.83;;;2.50;;
43676;SDS011;29275;48.800;18.102;2023-04-02T23:17:33;4.55;;;2.53;;
43676;SDS011;29275;48.800;18.102;2023-04-02T23:20:37;5.05;;;2.85;;
43676;SDS011;29275;48.800;18.102;2023-04-02T23:23:40;4.90;;;2.47;;
43676;SDS011;29275;48.800;18.102;2023-04-02T23:26:43;5.25;;;2.15;;
43676;SDS011;29275;48.800;18.102;2023-04-02T23:29:46;4.82;;;2.30;;
43676;SDS011;29275;48.800;18.102;2023-04-02T23:32:49;3.55;;;2.22;;
43676;SDS011;29275;48.800;18.102;2023-04-02T23:35:52;3.72;;;1.92;;
43676;SDS011;29275;48.800;18.102;2023-04-02T23:38:56;4.78;;;2.28;;
43676;SDS011;29275;48.800;18.102;2023-04-02T23:42:02;3.20;;;1.83;;
43676;SDS011;29275;48.800;18.102;2023-04-02T23:45:05;5.03;;;2.25;;
43676;SDS011;29275;48.800;18.102;2023-04-02T23:48:08;6.47;;;2.78;;